sensor_id;sensor_type;location;lat;lon;timestamp;temperature;humidity
19033;DHT22;9649;51.042;13.804;2023-02-28T00:02:39;1.00;1.00
19033;DHT22;9649;51.042;13.804;2023-02-28T00:08:32;1.00;1.00
19033;DHT22;9649;51.042;13.804;2023-02-28T00:15:11;0.90;1.00
19033;DHT22;9649;51.042;13.804;2023-02-28T00:34:10;1.00;1.00
19033;DHT22;9649;51.042;13.804;2023-02-28T00:47:01;0.80;1.00
19033;DHT22;9649;51.042;13.804;2023-02-28T00:59:13;0.90;1.00
19033;DHT22;9649;51.042;13.804;2023-02-28T01:30:53;0.80;1.00
19033;DHT22;9649;51.042;13.804;2023-02-28T01:36:41;0.60;1.00
19033;DHT22;9649;51.042;13.804;2023-02-28T01:42:20;0.40;1.00
19033;DHT22;9649;51.042;13.804;2023-02-28T01:47:26;0.20;1.00
19033;DHT22;9649;51.042;13.804;2023-02-28T01:52:30;-0.10;4.00
19033;DHT22;9649;51.042;13.804;2023-02-28T01:57:36;-0.20;42.90
19033;DHT22;9649;51.042;13.804;2023-02-28T02:02:42;-0.10;30.10
19033;DHT22;9649;51.042;13.804;2023-02-28T02:07:47;-0.20;23.70
19033;DHT22;9649;51.042;13.804;2023-02-28T02:13:08;-0.20;39.40
19033;DHT22;9649;51.042;13.804;2023-02-28T02:18:20;-0.10;1.00
19033;DHT22;9649;51.042;13.804;2023-02-28T02:29:45;-0.30;91.40
19033;DHT22;9649;51.042;13.804;2023-02-28T02:35:34;-0.30;99.90
19033;DHT22;9649;51.042;13.804;2023-02-28T02:40:51;-0.20;82.80
19033;DHT22;9649;51.042;13.804;2023-02-28T02:46:12;-0.20;81.70
19033;DHT22;9649;51.042;13.804;2023-02-28T02:51:32;-0.20;79.80
19033;DHT22;9649;51.042;13.804;2023-02-28T02:56:48;-0.40;99.90
19033;DHT22;9649;51.042;13.804;2023-02-28T03:02:08;-0.40;99.90
19033;DHT22;9649;51.042;13.804;2023-02-28T03:07:28;-0.40;99.90
19033;DHT22;9649;51.042;13.804;2023-02-28T03:12:44;-0.60;99.90
19033;DHT22;9649;51.042;13.804;2023-02-28T03:18:02;-0.40;99.90
19033;DHT22;9649;51.042;13.804;2023-02-28T03:23:19;-0.40;99.90
19033;DHT22;9649;51.042;13.804;2023-02-28T03:28:35;-0.70;99.90
19033;DHT22;9649;51.042;13.804;2023-02-28T03:34:02;-0.80;99.90
19033;DHT22;9649;51.042;13.804;2023-02-28T03:39:20;-1.10;99.90
19033;DHT22;9649;51.042;13.804;2023-02-28T03:44:44;-1.00;99.90
19033;DHT22;9649;51.042;13.804;2023-02-28T03:50:29;-1.30;99.90
19033;DHT22;9649;51.042;13.804;2023-02-28T03:56:08;-1.20;99.90
19033;DHT22;9649;51.042;13.804;2023-02-28T04:01:46;-1.10;99.90
19033;DHT22;9649;51.042;13.804;2023-02-28T04:07:30;-1.70;99.90
19033;DHT22;9649;51.042;13.804;2023-02-28T04:39:17;-2.50;99.90
19033;DHT22;9649;51.042;13.804;2023-02-28T06:12:26;-2.80;99.90
19033;DHT22;9649;51.042;13.804;2023-02-28T06:24:32;-2.30;99.90
19033;DHT22;9649;51.042;13.804;2023-02-28T06:30:18;-2.10;99.90
19033;DHT22;9649;51.042;13.804;2023-02-28T06:35:58;-2.10;99.90
19033;DHT22;9649;51.042;13.804;2023-02-28T06:41:43;-2.20;99.90
19033;DHT22;9649;51.042;13.804;2023-02-28T06:46:57;-2.30;99.90
19033;DHT22;9649;51.042;13.804;2023-02-28T07:04:28;-1.00;99.90
19033;DHT22;9649;51.042;13.804;2023-02-28T07:42:32;1.10;1.00
19033;DHT22;9649;51.042;13.804;2023-02-28T08:07:32;11.40;1.00
19033;DHT22;9649;51.042;13.804;2023-02-28T08:13:20;11.00;1.00
19033;DHT22;9649;51.042;13.804;2023-02-28T08:20:03;12.00;1.00
19033;DHT22;9649;51.042;13.804;2023-02-28T08:45:01;6.20;99.90
19033;DHT22;9649;51.042;13.804;2023-02-28T08:50:27;6.40;99.90
19033;DHT22;9649;51.042;13.804;2023-02-28T08:56:19;5.80;1.00
19033;DHT22;9649;51.042;13.804;2023-02-28T09:01:25;8.00;99.90
19033;DHT22;9649;51.042;13.804;2023-02-28T09:06:30;9.30;1.00
19033;DHT22;9649;51.042;13.804;2023-02-28T09:11:34;10.40;1.00
19033;DHT22;9649;51.042;13.804;2023-02-28T09:16:39;12.20;1.00
19033;DHT22;9649;51.042;13.804;2023-02-28T09:21:42;11.50;1.00
19033;DHT22;9649;51.042;13.804;2023-02-28T09:26:44;13.10;1.00
19033;DHT22;9649;51.042;13.804;2023-02-28T09:32:05;14.70;1.00
19033;DHT22;9649;51.042;13.804;2023-02-28T09:37:08;15.70;1.00
19033;DHT22;9649;51.042;13.804;2023-02-28T09:42:21;21.60;1.00
19033;DHT22;9649;51.042;13.804;2023-02-28T09:53:59;27.10;99.90
19033;DHT22;9649;51.042;13.804;2023-02-28T09:59:39;29.50;99.90
19033;DHT22;9649;51.042;13.804;2023-02-28T10:05:43;28.20;99.90
19033;DHT22;9649;51.042;13.804;2023-02-28T10:11:16;27.10;99.90
19033;DHT22;9649;51.042;13.804;2023-02-28T10:16:23;26.50;99.90
19033;DHT22;9649;51.042;13.804;2023-02-28T10:21:33;21.80;99.90
19033;DHT22;9649;51.042;13.804;2023-02-28T10:26:39;19.30;99.90
19033;DHT22;9649;51.042;13.804;2023-02-28T10:31:44;16.10;99.90
19033;DHT22;9649;51.042;13.804;2023-02-28T10:36:48;13.80;99.90
19033;DHT22;9649;51.042;13.804;2023-02-28T10:41:52;12.10;99.90
19033;DHT22;9649;51.042;13.804;2023-02-28T10:46:57;11.10;99.90
19033;DHT22;9649;51.042;13.804;2023-02-28T10:52:01;11.30;99.90
19033;DHT22;9649;51.042;13.804;2023-02-28T10:57:17;13.00;99.90
19033;DHT22;9649;51.042;13.804;2023-02-28T11:02:32;22.30;99.90
19033;DHT22;9649;51.042;13.804;2023-02-28T11:07:35;26.80;99.90
19033;DHT22;9649;51.042;13.804;2023-02-28T11:12:56;25.10;99.90
19033;DHT22;9649;51.042;13.804;2023-02-28T11:18:15;18.10;99.90
19033;DHT22;9649;51.042;13.804;2023-02-28T11:23:25;14.80;99.90
19033;DHT22;9649;51.042;13.804;2023-02-28T11:28:32;11.50;99.90
19033;DHT22;9649;51.042;13.804;2023-02-28T11:33:41;12.30;99.90
19033;DHT22;9649;51.042;13.804;2023-02-28T11:38:47;15.40;99.90
19033;DHT22;9649;51.042;13.804;2023-02-28T11:44:00;19.20;99.90
19033;DHT22;9649;51.042;13.804;2023-02-28T11:49:19;22.20;99.90
19033;DHT22;9649;51.042;13.804;2023-02-28T11:54:35;23.50;99.90
19033;DHT22;9649;51.042;13.804;2023-02-28T11:59:55;22.60;99.90
19033;DHT22;9649;51.042;13.804;2023-02-28T12:05:15;21.80;99.90
19033;DHT22;9649;51.042;13.804;2023-02-28T12:10:25;24.90;99.90
19033;DHT22;9649;51.042;13.804;2023-02-28T12:15:41;23.60;99.90
19033;DHT22;9649;51.042;13.804;2023-02-28T12:20:53;23.80;99.90
19033;DHT22;9649;51.042;13.804;2023-02-28T12:26:04;22.00;99.90
19033;DHT22;9649;51.042;13.804;2023-02-28T12:31:17;19.20;99.90
19033;DHT22;9649;51.042;13.804;2023-02-28T12:36:20;20.00;99.90
19033;DHT22;9649;51.042;13.804;2023-02-28T12:41:29;25.20;99.90
19033;DHT22;9649;51.042;13.804;2023-02-28T12:46:41;28.70;99.90
19033;DHT22;9649;51.042;13.804;2023-02-28T12:51:46;28.80;99.90
19033;DHT22;9649;51.042;13.804;2023-02-28T12:56:56;28.10;99.90
19033;DHT22;9649;51.042;13.804;2023-02-28T13:02:17;28.90;99.90
19033;DHT22;9649;51.042;13.804;2023-02-28T13:08:03;25.50;99.90
19033;DHT22;9649;51.042;13.804;2023-02-28T13:13:15;28.60;99.90
19033;DHT22;9649;51.042;13.804;2023-02-28T13:18:30;29.70;99.90
19033;DHT22;9649;51.042;13.804;2023-02-28T13:23:56;29.40;99.90
19033;DHT22;9649;51.042;13.804;2023-02-28T13:29:01;28.70;99.90
19033;DHT22;9649;51.042;13.804;2023-02-28T13:34:14;28.50;99.90
19033;DHT22;9649;51.042;13.804;2023-02-28T13:39:47;28.20;99.90
19033;DHT22;9649;51.042;13.804;2023-02-28T13:45:22;28.30;99.90
19033;DHT22;9649;51.042;13.804;2023-02-28T13:50:33;28.50;99.90
19033;DHT22;9649;51.042;13.804;2023-02-28T13:55:44;23.90;99.90
19033;DHT22;9649;51.042;13.804;2023-02-28T14:01:08;23.50;99.90
19033;DHT22;9649;51.042;13.804;2023-02-28T14:06:21;20.60;99.90
19033;DHT22;9649;51.042;13.804;2023-02-28T14:11:28;22.90;99.90
19033;DHT22;9649;51.042;13.804;2023-02-28T14:16:37;23.50;99.90
19033;DHT22;9649;51.042;13.804;2023-02-28T14:21:58;22.60;99.90
19033;DHT22;9649;51.042;13.804;2023-02-28T14:27:11;23.50;99.90
19033;DHT22;9649;51.042;13.804;2023-02-28T14:32:27;19.30;99.90
19033;DHT22;9649;51.042;13.804;2023-02-28T14:37:37;21.30;99.90
19033;DHT22;9649;51.042;13.804;2023-02-28T14:42:47;23.30;99.90
19033;DHT22;9649;51.042;13.804;2023-02-28T14:47:51;19.40;99.90
19033;DHT22;9649;51.042;13.804;2023-02-28T14:52:55;17.50;99.90
19033;DHT22;9649;51.042;13.804;2023-02-28T14:58:03;17.40;99.90
19033;DHT22;9649;51.042;13.804;2023-02-28T15:03:19;16.60;99.90
19033;DHT22;9649;51.042;13.804;2023-02-28T15:08:26;14.30;99.90
19033;DHT22;9649;51.042;13.804;2023-02-28T15:13:36;12.80;99.90
19033;DHT22;9649;51.042;13.804;2023-02-28T15:18:46;12.80;99.90
19033;DHT22;9649;51.042;13.804;2023-02-28T15:23:54;13.30;99.90
19033;DHT22;9649;51.042;13.804;2023-02-28T15:28:59;14.30;99.90
19033;DHT22;9649;51.042;13.804;2023-02-28T15:34:05;13.90;99.90
19033;DHT22;9649;51.042;13.804;2023-02-28T15:39:20;13.00;99.90
19033;DHT22;9649;51.042;13.804;2023-02-28T15:44:26;12.00;99.90
19033;DHT22;9649;51.042;13.804;2023-02-28T15:49:39;11.40;99.90
19033;DHT22;9649;51.042;13.804;2023-02-28T15:54:47;11.20;99.90
19033;DHT22;9649;51.042;13.804;2023-02-28T15:59:53;11.00;99.90
19033;DHT22;9649;51.042;13.804;2023-02-28T16:04:59;11.00;99.90
19033;DHT22;9649;51.042;13.804;2023-02-28T16:10:04;10.20;99.90
19033;DHT22;9649;51.042;13.804;2023-02-28T16:15:14;8.60;99.90
19033;DHT22;9649;51.042;13.804;2023-02-28T16:20:21;7.20;99.90
19033;DHT22;9649;51.042;13.804;2023-02-28T16:25:33;6.60;99.90
19033;DHT22;9649;51.042;13.804;2023-02-28T16:30:36;6.20;1.00
19033;DHT22;9649;51.042;13.804;2023-02-28T16:35:39;5.60;1.00
19033;DHT22;9649;51.042;13.804;2023-02-28T16:40:44;5.60;1.00
19033;DHT22;9649;51.042;13.804;2023-02-28T16:45:47;5.30;1.00
19033;DHT22;9649;51.042;13.804;2023-02-28T16:50:50;4.90;1.00
19033;DHT22;9649;51.042;13.804;2023-02-28T16:55:54;4.40;99.90
19033;DHT22;9649;51.042;13.804;2023-02-28T17:00:57;4.50;99.90
19033;DHT22;9649;51.042;13.804;2023-02-28T17:06:00;4.30;99.90
19033;DHT22;9649;51.042;13.804;2023-02-28T17:11:04;3.80;1.00
19033;DHT22;9649;51.042;13.804;2023-02-28T17:16:15;3.80;1.00
19033;DHT22;9649;51.042;13.804;2023-02-28T17:21:20;3.60;1.00
19033;DHT22;9649;51.042;13.804;2023-02-28T17:26:24;3.10;1.00
19033;DHT22;9649;51.042;13.804;2023-02-28T17:31:27;2.80;1.00
19033;DHT22;9649;51.042;13.804;2023-02-28T17:36:32;2.70;99.90
19033;DHT22;9649;51.042;13.804;2023-02-28T17:41:37;2.60;1.00
19033;DHT22;9649;51.042;13.804;2023-02-28T17:46:40;2.50;1.00
19033;DHT22;9649;51.042;13.804;2023-02-28T17:51:44;2.30;1.00
19033;DHT22;9649;51.042;13.804;2023-02-28T17:56:48;2.20;1.00
19033;DHT22;9649;51.042;13.804;2023-02-28T18:01:50;2.10;1.00
19033;DHT22;9649;51.042;13.804;2023-02-28T18:06:53;2.00;1.00
19033;DHT22;9649;51.042;13.804;2023-02-28T18:12:02;1.90;1.00
19033;DHT22;9649;51.042;13.804;2023-02-28T18:17:05;1.60;1.00
19033;DHT22;9649;51.042;13.804;2023-02-28T18:22:08;1.50;1.00
19033;DHT22;9649;51.042;13.804;2023-02-28T18:27:12;1.40;1.00
19033;DHT22;9649;51.042;13.804;2023-02-28T18:32:15;1.40;1.00
19033;DHT22;9649;51.042;13.804;2023-02-28T18:37:18;1.50;1.00
19033;DHT22;9649;51.042;13.804;2023-02-28T18:42:22;1.20;1.00
19033;DHT22;9649;51.042;13.804;2023-02-28T18:47:25;1.00;1.00
19033;DHT22;9649;51.042;13.804;2023-02-28T18:52:28;0.80;1.00
19033;DHT22;9649;51.042;13.804;2023-02-28T18:57:32;0.60;1.00
19033;DHT22;9649;51.042;13.804;2023-02-28T19:02:37;0.70;1.00
19033;DHT22;9649;51.042;13.804;2023-02-28T19:07:41;0.60;1.00
19033;DHT22;9649;51.042;13.804;2023-02-28T19:12:45;0.50;1.00
19033;DHT22;9649;51.042;13.804;2023-02-28T19:17:47;0.40;1.00
19033;DHT22;9649;51.042;13.804;2023-02-28T19:22:50;0.30;1.00
19033;DHT22;9649;51.042;13.804;2023-02-28T19:27:54;0.30;1.00
19033;DHT22;9649;51.042;13.804;2023-02-28T19:32:57;0.30;1.00
19033;DHT22;9649;51.042;13.804;2023-02-28T19:38:00;0.40;1.00
19033;DHT22;9649;51.042;13.804;2023-02-28T19:43:04;0.40;1.00
19033;DHT22;9649;51.042;13.804;2023-02-28T19:48:07;0.50;1.00
19033;DHT22;9649;51.042;13.804;2023-02-28T19:53:10;0.50;1.00
19033;DHT22;9649;51.042;13.804;2023-02-28T19:58:14;0.30;1.00
19033;DHT22;9649;51.042;13.804;2023-02-28T20:03:17;0.10;18.70
19033;DHT22;9649;51.042;13.804;2023-02-28T20:08:20;0.10;10.80
19033;DHT22;9649;51.042;13.804;2023-02-28T20:13:26;0.40;1.00
19033;DHT22;9649;51.042;13.804;2023-02-28T20:18:29;0.80;1.00
19033;DHT22;9649;51.042;13.804;2023-02-28T20:23:32;0.70;1.00
19033;DHT22;9649;51.042;13.804;2023-02-28T20:28:36;0.60;1.00
19033;DHT22;9649;51.042;13.804;2023-02-28T20:33:39;0.50;1.00
19033;DHT22;9649;51.042;13.804;2023-02-28T20:38:42;0.50;1.00
19033;DHT22;9649;51.042;13.804;2023-02-28T20:43:46;0.30;1.00
19033;DHT22;9649;51.042;13.804;2023-02-28T22:00:11;-0.60;31.80
19033;DHT22;9649;51.042;13.804;2023-02-28T22:40:29;-1.40;99.90
19033;DHT22;9649;51.042;13.804;2023-02-28T22:46:12;-1.30;99.90
19033;DHT22;9649;51.042;13.804;2023-02-28T22:51:25;-1.40;99.90
19033;DHT22;9649;51.042;13.804;2023-02-28T22:56:38;-1.50;99.90
19033;DHT22;9649;51.042;13.804;2023-02-28T23:01:44;-1.50;99.90
19033;DHT22;9649;51.042;13.804;2023-02-28T23:06:49;-1.70;99.90
19033;DHT22;9649;51.042;13.804;2023-02-28T23:11:56;-1.80;99.90
19033;DHT22;9649;51.042;13.804;2023-02-28T23:16:59;-1.70;99.90
19033;DHT22;9649;51.042;13.804;2023-02-28T23:22:03;-1.60;99.90
19033;DHT22;9649;51.042;13.804;2023-02-28T23:27:10;-1.70;99.90
19033;DHT22;9649;51.042;13.804;2023-02-28T23:32:15;-1.60;99.90
19033;DHT22;9649;51.042;13.804;2023-02-28T23:37:18;-1.50;99.90
19033;DHT22;9649;51.042;13.804;2023-02-28T23:42:22;-1.90;99.90
19033;DHT22;9649;51.042;13.804;2023-02-28T23:47:25;-2.20;99.90
19033;DHT22;9649;51.042;13.804;2023-02-28T23:52:28;-2.40;99.90
19033;DHT22;9649;51.042;13.804;2023-02-28T23:57:33;-2.70;99.90
